Time;durP1;ratioP1;P1;durP2;ratioP2;P2;SDS_P1;SDS_P2;PMS_P1;PMS_P2;Temp;Humidity;BMP_temperature;BMP_pressure;BME280_temperature;BME280_humidity;BME280_pressure;Samples;Min_cycle;Max_cycle;Signal;HPM_P1;HPM_P2
2023/04/24 00:02:15;;;;;;;0.63;0.63;;;;;;;;;;5045824;28;20196;-90
2023/04/24 00:04:44;;;;;;;0.50;0.50;;;;;;;;;;5043374;28;20266;-90
2023/04/24 00:07:12;;;;;;;0.90;0.63;;;;;;;;;;5047088;28;20219;-91
2023/04/24 00:09:40;;;;;;;0.93;0.90;;;;;;;;;;5044812;28;20200;-90
2023/04/24 00:12:07;;;;;;;0.90;0.70;;;;;;;;;;5041397;28;20294;-90
2023/04/24 00:14:35;;;;;;;1.47;0.80;;;;;;;;;;5046014;28;20224;-90
2023/04/24 00:17:03;;;;;;;0.70;0.70;;;;;;;;;;5045597;28;20200;-90
2023/04/24 00:19:31;;;;;;;0.80;0.80;;;;;;;;;;5048255;28;20215;-90
2023/04/24 00:21:59;;;;;;;0.90;0.90;;;;;;;;;;5056398;28;20195;-90
2023/04/24 00:24:27;;;;;;;0.93;0.80;;;;;;;;;;5049841;28;20200;-90
2023/04/24 00:26:54;;;;;;;1.23;0.90;;;;;;;;;;5053592;28;20216;-90
2023/04/24 00:29:23;;;;;;;1.00;1.00;;;;;;;;;;5044098;28;20286;-90
2023/04/24 00:31:50;;;;;;;3.50;0.90;;;;;;;;;;5054578;28;20302;-90
2023/04/24 00:34:18;;;;;;;1.37;1.03;;;;;;;;;;5045814;28;20207;-90
2023/04/24 00:36:48;;;;;;;1.10;1.00;;;;;;;;;;5051269;28;20218;-89
2023/04/24 00:39:16;;;;;;;1.10;1.10;;;;;;;;;;5047848;28;20286;-90
2023/04/24 00:41:43;;;;;;;1.20;1.10;;;;;;;;;;5051978;28;20207;-90
2023/04/24 00:44:11;;;;;;;1.50;1.33;;;;;;;;;;5050870;28;20199;-90
2023/04/24 00:46:38;;;;;;;2.03;1.40;;;;;;;;;;5052392;28;20222;-90
2023/04/24 00:49:06;;;;;;;1.33;1.30;;;;;;;;;;5053378;28;20214;-91
2023/04/24 00:51:34;;;;;;;1.37;1.20;;;;;;;;;;5047694;28;20249;-91
2023/04/24 00:54:03;;;;;;;1.43;1.20;;;;;;;;;;5047897;28;20214;-90
2023/04/24 00:56:30;;;;;;;1.93;1.47;;;;;;;;;;5052096;28;20231;-90
2023/04/24 00:58:58;;;;;;;1.70;1.60;;;;;;;;;;5047547;28;20212;-90
2023/04/24 01:01:25;;;;;;;3.23;1.40;;;;;;;;;;5049203;28;20222;-90
2023/04/24 01:03:53;;;;;;;2.10;2.00;;;;;;;;;;5047012;28;20208;-90
2023/04/24 01:06:20;;;;;;;2.13;2.00;;;;;;;;;;5050412;28;20200;-91
2023/04/24 01:08:48;;;;;;;2.60;1.90;;;;;;;;;;5045223;28;20224;-90
2023/04/24 01:11:17;;;;;;;2.13;1.80;;;;;;;;;;5047438;28;20195;-90
2023/04/24 01:13:44;;;;;;;2.17;2.00;;;;;;;;;;5050288;28;20207;-90
2023/04/24 01:16:12;;;;;;;2.57;2.20;;;;;;;;;;5042595;28;20231;-91
2023/04/24 01:18:40;;;;;;;2.40;2.20;;;;;;;;;;5050799;28;20219;-90
2023/04/24 01:21:10;;;;;;;2.43;2.23;;;;;;;;;;5049310;28;20208;-90
2023/04/24 01:23:38;;;;;;;2.53;2.13;;;;;;;;;;5052497;28;20223;-90
2023/04/24 01:26:06;;;;;;;2.70;2.50;;;;;;;;;;5045777;28;20212;-90
2023/04/24 01:28:33;;;;;;;2.50;2.30;;;;;;;;;;5066982;28;20227;-90
2023/04/24 01:31:01;;;;;;;3.47;2.60;;;;;;;;;;5052394;28;20234;-90
2023/04/24 01:33:28;;;;;;;2.60;2.40;;;;;;;;;;5049022;28;20196;-90
2023/04/24 01:35:56;;;;;;;3.93;2.50;;;;;;;;;;5047488;28;20203;-90
2023/04/24 01:38:23;;;;;;;3.37;2.60;;;;;;;;;;5056837;28;20203;-90
2023/04/24 01:40:52;;;;;;;2.60;2.40;;;;;;;;;;5046649;28;20214;-90
2023/04/24 01:43:20;;;;;;;3.63;2.20;;;;;;;;;;5053801;28;20206;-90
2023/04/24 01:45:47;;;;;;;2.80;2.50;;;;;;;;;;5048826;28;20208;-90
2023/04/24 01:48:14;;;;;;;4.30;2.70;;;;;;;;;;5052366;28;20225;-90
2023/04/24 01:50:42;;;;;;;2.80;2.60;;;;;;;;;;5045408;28;20203;-89
2023/04/24 01:53:09;;;;;;;3.23;2.50;;;;;;;;;;5044388;28;20196;-90
2023/04/24 01:55:37;;;;;;;2.50;2.30;;;;;;;;;;5053778;28;20204;-90
2023/04/24 01:58:05;;;;;;;2.97;2.67;;;;;;;;;;5057149;28;20279;-90
2023/04/24 02:00:32;;;;;;;2.60;2.40;;;;;;;;;;5051927;28;20250;-90
2023/04/24 02:03:01;;;;;;;3.60;2.83;;;;;;;;;;5051846;28;20212;-90
2023/04/24 02:05:28;;;;;;;3.10;2.80;;;;;;;;;;5044211;28;20208;-90
2023/04/24 02:07:56;;;;;;;3.40;2.90;;;;;;;;;;5040179;28;20222;-90
2023/04/24 02:10:25;;;;;;;4.83;3.00;;;;;;;;;;5051952;28;20295;-90
2023/04/24 02:12:52;;;;;;;2.77;2.57;;;;;;;;;;5053811;28;20199;-90
2023/04/24 02:15:21;;;;;;;3.50;3.20;;;;;;;;;;5047521;28;20222;-90
2023/04/24 02:17:48;;;;;;;4.50;3.20;;;;;;;;;;5047838;28;20303;-90
2023/04/24 02:20:17;;;;;;;4.30;3.40;;;;;;;;;;5051346;28;20218;-90
2023/04/24 02:22:44;;;;;;;3.63;3.23;;;;;;;;;;5046620;28;20250;-90
2023/04/24 02:25:12;;;;;;;3.97;3.50;;;;;;;;;;5051237;28;20212;-90
2023/04/24 02:27:39;;;;;;;4.63;3.77;;;;;;;;;;5042975;28;20296;-90
2023/04/24 02:30:07;;;;;;;5.43;3.77;;;;;;;;;;5041554;28;20199;-90
2023/04/24 02:32:35;;;;;;;4.43;3.87;;;;;;;;;;5044835;28;20207;-90
2023/04/24 02:35:03;;;;;;;4.73;3.97;;;;;;;;;;5042301;28;20200;-90
2023/04/24 02:37:30;;;;;;;5.43;4.27;;;;;;;;;;5046511;28;20206;-90
2023/04/24 02:39:57;;;;;;;3.90;3.60;;;;;;;;;;5044160;28;20206;-90
2023/04/24 02:42:24;;;;;;;4.97;4.47;;;;;;;;;;5053219;28;20203;-90
2023/04/24 02:44:52;;;;;;;5.03;4.53;;;;;;;;;;5047854;28;20203;-90
2023/04/24 02:47:19;;;;;;;5.93;4.37;;;;;;;;;;5042258;28;20242;-90
2023/04/24 02:49:48;;;;;;;5.63;4.90;;;;;;;;;;5044057;28;20214;-90
2023/04/24 02:52:16;;;;;;;6.97;4.67;;;;;;;;;;5045442;28;20195;-91
2023/04/24 02:54:44;;;;;;;6.20;4.67;;;;;;;;;;5047508;28;20231;-90
2023/04/24 02:57:11;;;;;;;4.40;4.00;;;;;;;;;;5046736;28;20211;-90
2023/04/24 02:59:38;;;;;;;6.70;4.80;;;;;;;;;;5048105;28;20217;-91
2023/04/24 03:02:06;;;;;;;5.63;4.93;;;;;;;;;;5045757;28;20268;-90
2023/04/24 03:04:33;;;;;;;5.57;4.83;;;;;;;;;;5037013;28;20209;-90
2023/04/24 03:07:02;;;;;;;5.03;4.63;;;;;;;;;;5047051;28;20207;-90
2023/04/24 03:09:29;;;;;;;5.33;4.93;;;;;;;;;;5046001;28;20305;-90
2023/04/24 03:11:58;;;;;;;5.70;5.20;;;;;;;;;;5043891;28;20249;-90
2023/04/24 03:14:25;;;;;;;5.63;4.90;;;;;;;;;;5037313;28;20235;-90
2023/04/24 03:16:52;;;;;;;5.40;5.00;;;;;;;;;;5038347;28;20219;-90
2023/04/24 03:19:20;;;;;;;6.83;4.60;;;;;;;;;;5049751;28;20294;-90
2023/04/24 03:21:47;;;;;;;6.23;5.63;;;;;;;;;;5046962;28;20196;-91
2023/04/24 03:24:16;;;;;;;6.73;6.13;;;;;;;;;;5041753;28;20286;-90
2023/04/24 03:26:43;;;;;;;6.20;5.60;;;;;;;;;;5042841;28;20208;-90
2023/04/24 03:29:11;;;;;;;6.07;5.23;;;;;;;;;;5036124;28;20233;-90
2023/04/24 03:31:38;;;;;;;5.90;5.30;;;;;;;;;;5034233;28;20228;-90
2023/04/24 03:34:05;;;;;;;6.17;5.33;;;;;;;;;;5043689;28;20294;-90
2023/04/24 03:36:32;;;;;;;5.90;5.37;;;;;;;;;;5045457;28;20267;-90
2023/04/24 03:39:00;;;;;;;6.90;6.20;;;;;;;;;;5043080;28;20214;-90
2023/04/24 03:41:30;;;;;;;5.83;5.23;;;;;;;;;;5044843;28;20290;-90
2023/04/24 03:43:57;;;;;;;7.87;7.07;;;;;;;;;;5037808;28;20220;-90
2023/04/24 03:46:24;;;;;;;7.77;6.97;;;;;;;;;;5035387;28;20215;-90
2023/04/24 03:48:52;;;;;;;7.83;6.13;;;;;;;;;;5043204;28;20312;-90
2023/04/24 03:51:19;;;;;;;7.40;6.60;;;;;;;;;;5044663;28;20208;-90
2023/04/24 03:53:46;;;;;;;7.93;7.13;;;;;;;;;;5050876;28;20208;-90
2023/04/24 03:56:13;;;;;;;7.57;6.80;;;;;;;;;;5054739;28;20233;-90
2023/04/24 03:58:42;;;;;;;6.77;6.17;;;;;;;;;;5051147;28;20321;-90
2023/04/24 04:01:10;;;;;;;7.90;7.07;;;;;;;;;;5049572;28;20214;-90
2023/04/24 04:03:37;;;;;;;7.00;6.37;;;;;;;;;;5045156;28;20207;-90
2023/04/24 04:06:04;;;;;;;8.97;6.73;;;;;;;;;;5054236;28;20207;-90
2023/04/24 04:08:32;;;;;;;8.43;7.60;;;;;;;;;;5048849;28;20262;-90
2023/04/24 04:10:59;;;;;;;9.00;7.27;;;;;;;;;;5052515;28;20199;-90
2023/04/24 04:13:26;;;;;;;8.03;7.23;;;;;;;;;;5055358;28;20202;-90
2023/04/24 04:15:56;;;;;;;7.97;7.17;;;;;;;;;;5053908;28;20282;-90
2023/04/24 04:18:23;;;;;;;8.30;7.43;;;;;;;;;;5051464;28;20212;-90
2023/04/24 04:20:50;;;;;;;8.77;7.90;;;;;;;;;;5049523;28;20199;-90
2023/04/24 04:23:18;;;;;;;8.53;7.60;;;;;;;;;;5049964;28;20222;-90
2023/04/24 04:25:46;;;;;;;10.37;8.07;;;;;;;;;;5045450;28;20196;-90
2023/04/24 04:28:15;;;;;;;7.60;6.87;;;;;;;;;;5050751;28;20219;-90
2023/04/24 04:30:42;;;;;;;9.60;8.57;;;;;;;;;;5049026;28;20243;-90
2023/04/24 04:33:12;;;;;;;9.27;7.77;;;;;;;;;;5046555;28;20200;-90
2023/04/24 04:35:39;;;;;;;8.90;8.03;;;;;;;;;;5050000;28;20201;-90
2023/04/24 04:38:08;;;;;;;9.93;8.87;;;;;;;;;;5042794;28;20204;-89
2023/04/24 04:40:36;;;;;;;9.33;8.00;;;;;;;;;;5042444;28;20210;-90
2023/04/24 04:43:04;;;;;;;9.47;8.50;;;;;;;;;;5043617;28;20230;-89
2023/04/24 04:45:32;;;;;;;10.20;8.60;;;;;;;;;;5046210;28;20195;-89
2023/04/24 04:48:00;;;;;;;13.37;8.67;;;;;;;;;;5048529;28;20211;-89
2023/04/24 04:50:29;;;;;;;9.93;8.90;;;;;;;;;;5045222;28;20192;-89
2023/04/24 04:52:57;;;;;;;11.67;9.93;;;;;;;;;;5048326;28;20199;-86
2023/04/24 04:55:25;;;;;;;10.57;9.47;;;;;;;;;;5049230;28;20290;-86
2023/04/24 04:57:52;;;;;;;10.43;9.33;;;;;;;;;;5046382;28;20216;-87
2023/04/24 05:00:21;;;;;;;11.00;9.77;;;;;;;;;;5040227;28;20215;-87
2023/04/24 05:02:48;;;;;;;9.77;8.80;;;;;;;;;;5051263;28;20261;-87
2023/04/24 05:05:16;;;;;;;9.20;8.37;;;;;;;;;;5050971;28;20271;-88
2023/04/24 05:07:45;;;;;;;8.50;7.80;;;;;;;;;;5046594;28;20203;-89
2023/04/24 05:10:12;;;;;;;8.33;7.47;;;;;;;;;;5045800;28;20226;-88
2023/04/24 05:12:40;;;;;;;7.90;7.20;;;;;;;;;;5039135;28;20204;-87
2023/04/24 05:15:07;;;;;;;7.90;7.20;;;;;;;;;;5041457;28;20204;-88
2023/04/24 05:17:35;;;;;;;9.13;7.60;;;;;;;;;;5050186;28;20199;-91
2023/04/24 05:20:03;;;;;;;7.30;6.70;;;;;;;;;;5049815;28;20227;-89
2023/04/24 05:22:30;;;;;;;7.63;6.93;;;;;;;;;;5050321;28;20208;-88
2023/04/24 05:24:59;;;;;;;7.10;6.43;;;;;;;;;;5047431;28;20215;-95
2023/04/24 05:27:26;;;;;;;7.67;6.57;;;;;;;;;;5044676;28;20195;-88
2023/04/24 05:29:53;;;;;;;7.67;6.90;;;;;;;;;;5048463;28;20322;-88
2023/04/24 05:32:21;;;;;;;6.23;5.63;;;;;;;;;;5045271;28;20208;-89
2023/04/24 05:34:48;;;;;;;6.97;6.27;;;;;;;;;;5047315;28;20208;-90
2023/04/24 05:37:15;;;;;;;6.17;5.40;;;;;;;;;;5040395;28;20211;-93
2023/04/24 05:39:43;;;;;;;6.53;5.13;;;;;;;;;;5051123;28;20231;-87
2023/04/24 05:42:12;;;;;;;5.83;5.10;;;;;;;;;;5045998;28;20214;-87
2023/04/24 05:44:39;;;;;;;5.53;5.03;;;;;;;;;;5047494;28;20196;-87
2023/04/24 05:47:07;;;;;;;5.63;5.13;;;;;;;;;;5049524;28;20203;-88
2023/04/24 05:49:35;;;;;;;5.60;5.00;;;;;;;;;;5043527;28;20292;-88
2023/04/24 05:52:03;;;;;;;5.87;4.93;;;;;;;;;;5043608;28;20199;-87
2023/04/24 05:54:31;;;;;;;5.30;4.90;;;;;;;;;;5042947;28;20259;-87
2023/04/24 05:56:58;;;;;;;5.47;4.97;;;;;;;;;;5051521;28;20295;-87
2023/04/24 05:59:27;;;;;;;5.20;4.70;;;;;;;;;;5050877;28;20199;-87
2023/04/24 06:01:55;;;;;;;5.17;4.77;;;;;;;;;;5043763;28;20253;-87
2023/04/24 06:04:23;;;;;;;6.13;4.73;;;;;;;;;;5044110;28;20200;-87
2023/04/24 06:06:55;;;;;;;5.20;4.70;;;;;;;;;;5051193;28;20204;-87
2023/04/24 06:09:22;;;;;;;5.37;4.87;;;;;;;;;;5047797;28;20227;-87
2023/04/24 06:11:52;;;;;;;5.37;4.90;;;;;;;;;;5051401;28;20204;-88
2023/04/24 06:14:19;;;;;;;5.50;5.00;;;;;;;;;;5047889;28;20205;-87
2023/04/24 06:16:48;;;;;;;5.90;4.63;;;;;;;;;;5050187;28;20203;-87
2023/04/24 06:19:16;;;;;;;4.80;4.40;;;;;;;;;;5044121;28;20242;-87
2023/04/24 06:21:43;;;;;;;5.67;5.03;;;;;;;;;;5048312;28;20204;-88
2023/04/24 06:24:11;;;;;;;5.57;4.70;;;;;;;;;;5048678;28;20295;-87
2023/04/24 06:26:38;;;;;;;4.93;4.50;;;;;;;;;;5048507;28;20200;-87
2023/04/24 06:29:07;;;;;;;5.40;4.90;;;;;;;;;;5052307;28;20225;-87
2023/04/24 06:31:36;;;;;;;4.73;4.33;;;;;;;;;;5040369;28;20274;-87
2023/04/24 06:34:05;;;;;;;5.23;4.73;;;;;;;;;;5049622;28;20212;-87
2023/04/24 06:36:34;;;;;;;5.83;4.80;;;;;;;;;;5039109;28;20207;-87
2023/04/24 06:39:02;;;;;;;5.07;4.67;;;;;;;;;;5047654;28;20219;-87
2023/04/24 06:41:29;;;;;;;5.17;4.67;;;;;;;;;;5044613;28;20230;-88
2023/04/24 06:43:57;;;;;;;6.03;5.27;;;;;;;;;;5037782;28;20302;-87
2023/04/24 06:46:25;;;;;;;5.67;5.13;;;;;;;;;;5043539;28;20200;-88
2023/04/24 06:48:55;;;;;;;6.73;6.13;;;;;;;;;;5047354;28;20218;-88
2023/04/24 06:51:25;;;;;;;5.70;5.20;;;;;;;;;;5034993;28;20200;-88
2023/04/24 06:53:53;;;;;;;6.67;5.67;;;;;;;;;;5045253;28;20278;-88
2023/04/24 06:56:21;;;;;;;5.83;5.30;;;;;;;;;;5041542;28;20214;-88
2023/04/24 06:58:48;;;;;;;6.00;5.50;;;;;;;;;;5049581;28;20275;-88
2023/04/24 07:01:15;;;;;;;6.27;5.53;;;;;;;;;;5051057;28;20207;-88
2023/04/24 07:03:43;;;;;;;6.27;5.67;;;;;;;;;;5047078;28;20263;-88
2023/04/24 07:06:11;;;;;;;6.43;5.20;;;;;;;;;;5048130;28;20198;-88
2023/04/24 07:08:41;;;;;;;6.93;5.20;;;;;;;;;;5042533;28;20223;-87
2023/04/24 07:11:09;;;;;;;6.00;5.40;;;;;;;;;;5047935;28;20218;-88
2023/04/24 07:13:36;;;;;;;5.87;5.37;;;;;;;;;;5036633;28;20208;-88
2023/04/24 07:16:03;;;;;;;5.70;5.20;;;;;;;;;;5043669;28;20199;-88
2023/04/24 07:18:31;;;;;;;6.13;5.63;;;;;;;;;;5048213;28;20286;-88
2023/04/24 07:20:59;;;;;;;6.87;5.40;;;;;;;;;;5041152;28;20210;-88
2023/04/24 07:23:27;;;;;;;6.10;5.57;;;;;;;;;;5054994;28;20215;-88
2023/04/24 07:25:56;;;;;;;6.20;5.60;;;;;;;;;;5049146;28;20219;-88
2023/04/24 07:28:24;;;;;;;6.10;5.50;;;;;;;;;;5039022;28;20195;-87
2023/04/24 07:30:55;;;;;;;6.47;5.97;;;;;;;;;;5036427;28;20247;-88
2023/04/24 07:33:23;;;;;;;6.43;5.83;;;;;;;;;;5036433;28;20203;-88
2023/04/24 07:35:50;;;;;;;7.47;5.83;;;;;;;;;;5041693;28;20207;-88
2023/04/24 07:38:20;;;;;;;6.23;5.63;;;;;;;;;;5054000;28;20210;-88
2023/04/24 07:40:47;;;;;;;6.13;5.53;;;;;;;;;;5047998;28;20204;-88
2023/04/24 07:43:17;;;;;;;6.20;5.63;;;;;;;;;;5046923;28;20225;-88
2023/04/24 07:45:44;;;;;;;6.83;6.10;;;;;;;;;;5053013;28;20199;-87
2023/04/24 07:48:14;;;;;;;6.73;5.30;;;;;;;;;;5050331;28;20200;-87
2023/04/24 07:50:42;;;;;;;6.77;5.70;;;;;;;;;;5051937;28;20231;-87
2023/04/24 07:53:10;;;;;;;8.13;5.40;;;;;;;;;;5055728;28;20204;-90
2023/04/24 07:55:37;;;;;;;7.03;5.77;;;;;;;;;;5044884;28;20203;-89
2023/04/24 07:58:06;;;;;;;6.33;5.73;;;;;;;;;;5058281;28;20202;-88
2023/04/24 08:00:34;;;;;;;6.20;5.60;;;;;;;;;;5041206;28;20214;-88
2023/04/24 08:03:02;;;;;;;5.70;5.20;;;;;;;;;;5051073;28;20203;-88
2023/04/24 08:05:30;;;;;;;7.27;6.20;;;;;;;;;;5053187;28;20212;-88
2023/04/24 08:07:57;;;;;;;7.87;6.27;;;;;;;;;;5047300;28;20204;-88
2023/04/24 08:10:25;;;;;;;7.27;6.10;;;;;;;;;;5057813;28;20313;-88
2023/04/24 08:12:53;;;;;;;6.53;6.00;;;;;;;;;;5047382;28;20200;-88
2023/04/24 08:15:20;;;;;;;6.70;5.93;;;;;;;;;;5049059;28;20206;-88
2023/04/24 08:17:49;;;;;;;6.43;5.83;;;;;;;;;;5053080;28;20279;-88
2023/04/24 08:20:17;;;;;;;9.63;5.90;;;;;;;;;;5043444;28;20204;-88
2023/04/24 08:22:47;;;;;;;16.30;12.63;;;;;;;;;;5048034;28;20207;-88
2023/04/24 08:25:14;;;;;;;6.70;6.10;;;;;;;;;;5054130;28;20326;-88
2023/04/24 08:27:42;;;;;;;6.30;5.70;;;;;;;;;;5052275;28;20275;-88
2023/04/24 08:30:10;;;;;;;6.27;5.50;;;;;;;;;;5072037;28;20223;-88
2023/04/24 08:32:38;;;;;;;6.40;5.77;;;;;;;;;;5044919;28;20230;-88
2023/04/24 08:35:09;;;;;;;6.70;5.90;;;;;;;;;;5053497;28;20279;-88
2023/04/24 08:37:36;;;;;;;7.03;6.10;;;;;;;;;;5035869;28;20196;-88
2023/04/24 08:40:07;;;;;;;6.30;5.80;;;;;;;;;;5046892;28;20208;-88
2023/04/24 08:42:35;;;;;;;6.90;5.90;;;;;;;;;;5051980;28;20200;-88
2023/04/24 08:45:03;;;;;;;6.83;5.53;;;;;;;;;;5043811;28;20204;-88
2023/04/24 08:47:31;;;;;;;8.33;5.67;;;;;;;;;;5053621;28;20233;-88
2023/04/24 08:50:02;;;;;;;7.10;6.27;;;;;;;;;;5044800;28;20228;-88
2023/04/24 08:52:32;;;;;;;7.47;6.00;;;;;;;;;;5046357;28;20254;-88
2023/04/24 08:55:00;;;;;;;6.07;5.47;;;;;;;;;;5047884;28;20207;-88
2023/04/24 08:57:28;;;;;;;5.97;5.10;;;;;;;;;;5046761;28;20203;-88
2023/04/24 08:59:56;;;;;;;6.23;5.47;;;;;;;;;;5046248;28;20203;-88
2023/04/24 09:02:25;;;;;;;5.33;4.83;;;;;;;;;;5049670;28;20234;-88
2023/04/24 09:04:53;;;;;;;5.10;4.47;;;;;;;;;;5042158;28;20235;-87
2023/04/24 09:07:21;;;;;;;5.10;4.70;;;;;;;;;;5062822;28;20209;-88
2023/04/24 09:09:52;;;;;;;5.83;4.57;;;;;;;;;;5049368;28;20251;-88
2023/04/24 09:12:19;;;;;;;5.33;4.83;;;;;;;;;;5045847;28;20219;-88
2023/04/24 09:14:48;;;;;;;7.63;5.27;;;;;;;;;;5046578;28;20203;-87
2023/04/24 09:17:15;;;;;;;5.37;4.87;;;;;;;;;;5053023;28;20204;-87
2023/04/24 09:19:43;;;;;;;5.77;5.27;;;;;;;;;;5050633;28;20210;-87
2023/04/24 09:22:11;;;;;;;5.77;5.27;;;;;;;;;;5045408;28;20229;-87
2023/04/24 09:24:40;;;;;;;6.43;5.80;;;;;;;;;;5049637;28;20212;-88
2023/04/24 09:27:14;;;;;;;5.87;5.37;;;;;;;;;;5040029;28;20200;-87
2023/04/24 09:29:55;;;;;;;6.70;5.70;;;;;;;;;;5038285;28;20258;-88
2023/04/24 09:32:24;;;;;;;5.63;5.00;;;;;;;;;;5051596;28;20202;-88
2023/04/24 09:35:06;;;;;;;6.10;5.57;;;;;;;;;;5042280;28;20212;-88
2023/04/24 09:37:37;;;;;;;6.20;5.20;;;;;;;;;;5044332;28;20227;-88
2023/04/24 09:40:12;;;;;;;6.13;5.53;;;;;;;;;;5048717;28;20214;-88
2023/04/24 09:42:41;;;;;;;7.07;5.27;;;;;;;;;;5053222;28;20202;-88
2023/04/24 09:45:12;;;;;;;6.33;5.43;;;;;;;;;;5054230;28;20203;-88
2023/04/24 09:47:40;;;;;;;5.73;5.07;;;;;;;;;;5047482;28;20219;-90
2023/04/24 09:50:15;;;;;;;5.50;4.40;;;;;;;;;;5039498;28;20226;-88
2023/04/24 09:52:46;;;;;;;5.50;5.00;;;;;;;;;;5047714;28;20206;-88
2023/04/24 09:55:16;;;;;;;5.13;4.73;;;;;;;;;;5043487;28;20203;-88
2023/04/24 09:57:54;;;;;;;5.27;4.53;;;;;;;;;;5044290;28;20204;-87
2023/04/24 10:00:24;;;;;;;5.63;5.13;;;;;;;;;;5044474;28;20204;-88
2023/04/24 10:02:53;;;;;;;5.70;5.17;;;;;;;;;;5048102;28;20210;-88
2023/04/24 10:05:20;;;;;;;5.93;5.20;;;;;;;;;;5054178;28;20195;-89
2023/04/24 10:07:48;;;;;;;5.77;5.23;;;;;;;;;;5052421;28;20203;-88
2023/04/24 10:10:15;;;;;;;5.60;5.07;;;;;;;;;;5043003;28;20231;-88
2023/04/24 10:12:43;;;;;;;6.23;5.23;;;;;;;;;;5049687;28;20227;-88
2023/04/24 10:15:14;;;;;;;5.63;4.60;;;;;;;;;;5050579;28;20203;-89
2023/04/24 10:17:42;;;;;;;5.20;4.70;;;;;;;;;;5045355;28;20203;-86
2023/04/24 10:20:10;;;;;;;6.03;5.23;;;;;;;;;;5043868;28;20258;-89
2023/04/24 10:22:38;;;;;;;5.00;4.60;;;;;;;;;;5049427;28;20274;-88
2023/04/24 10:25:06;;;;;;;6.17;4.23;;;;;;;;;;5048456;28;20256;-87
2023/04/24 10:27:34;;;;;;;5.67;4.50;;;;;;;;;;5045904;28;20271;-87
2023/04/24 10:30:01;;;;;;;4.53;4.13;;;;;;;;;;5043670;28;20282;-88
2023/04/24 10:32:30;;;;;;;5.67;4.20;;;;;;;;;;5046833;28;20198;-88
2023/04/24 10:34:58;;;;;;;5.23;4.40;;;;;;;;;;5050962;28;20204;-90
2023/04/24 10:37:25;;;;;;;5.47;4.50;;;;;;;;;;5046691;28;20299;-91
2023/04/24 10:39:54;;;;;;;6.47;4.27;;;;;;;;;;5052840;28;20275;-93
2023/04/24 10:42:22;;;;;;;4.40;3.67;;;;;;;;;;5045036;28;20211;-91
2023/04/24 10:44:50;;;;;;;4.10;3.80;;;;;;;;;;5045311;28;20196;-93
2023/04/24 10:47:17;;;;;;;4.33;3.90;;;;;;;;;;5036089;28;20208;-92
2023/04/24 10:49:46;;;;;;;3.90;3.33;;;;;;;;;;5044658;28;20282;-93
2023/04/24 10:52:13;;;;;;;4.63;3.83;;;;;;;;;;5045363;28;20281;-91
2023/04/24 10:54:44;;;;;;;4.33;3.93;;;;;;;;;;5051368;28;20307;-91
2023/04/24 10:57:33;;;;;;;4.20;3.80;;;;;;;;;;5050278;28;20203;-91
2023/04/24 11:00:21;;;;;;;5.10;3.70;;;;;;;;;;5046483;28;20234;-89
2023/04/24 11:02:50;;;;;;;5.00;3.77;;;;;;;;;;5046057;28;20199;-87
2023/04/24 11:05:19;;;;;;;4.63;3.93;;;;;;;;;;5042304;28;20218;-87
2023/04/24 11:08:05;;;;;;;4.63;3.73;;;;;;;;;;5042986;28;20210;-87
2023/04/24 11:10:32;;;;;;;4.73;3.90;;;;;;;;;;5045929;28;20219;-87
2023/04/24 11:12:59;;;;;;;5.87;5.13;;;;;;;;;;5047272;28;20207;-88
2023/04/24 11:15:27;;;;;;;6.80;4.80;;;;;;;;;;5045779;28;20278;-89
2023/04/24 11:17:57;;;;;;;4.20;3.80;;;;;;;;;;5038097;28;20196;-88
2023/04/24 11:20:27;;;;;;;4.23;3.80;;;;;;;;;;5046855;28;20207;-87
2023/04/24 11:22:55;;;;;;;4.83;3.40;;;;;;;;;;5038161;28;20204;-88
2023/04/24 11:25:23;;;;;;;3.63;3.30;;;;;;;;;;5041347;28;20218;-88
2023/04/24 11:27:51;;;;;;;4.77;3.57;;;;;;;;;;5042242;28;20250;-87
2023/04/24 11:30:19;;;;;;;6.13;3.93;;;;;;;;;;5049119;28;20239;-88
2023/04/24 11:32:49;;;;;;;5.77;3.50;;;;;;;;;;5053242;28;20211;-89
2023/04/24 11:35:17;;;;;;;4.47;3.73;;;;;;;;;;5045254;28;20204;-88
2023/04/24 11:37:48;;;;;;;5.17;3.70;;;;;;;;;;5048993;28;20217;-88
2023/04/24 11:40:16;;;;;;;4.37;3.83;;;;;;;;;;5051936;28;20204;-88
2023/04/24 11:42:45;;;;;;;5.13;3.30;;;;;;;;;;5050310;28;20278;-89
2023/04/24 11:45:13;;;;;;;5.43;4.03;;;;;;;;;;5043680;28;20219;-88
2023/04/24 11:47:41;;;;;;;3.77;3.47;;;;;;;;;;5041631;28;20212;-88
2023/04/24 11:50:09;;;;;;;4.27;3.83;;;;;;;;;;5045686;28;20196;-88
2023/04/24 11:52:38;;;;;;;6.80;3.90;;;;;;;;;;5044939;28;20212;-88
2023/04/24 11:55:09;;;;;;;5.57;4.23;;;;;;;;;;5042927;28;20196;-91
2023/04/24 11:57:36;;;;;;;5.63;4.03;;;;;;;;;;5044088;28;20230;-91
2023/04/24 12:00:05;;;;;;;5.60;3.70;;;;;;;;;;5042179;28;20211;-87
2023/04/24 12:02:32;;;;;;;4.20;3.80;;;;;;;;;;5043820;28;20200;-87
2023/04/24 12:05:00;;;;;;;4.70;3.83;;;;;;;;;;5042257;28;20199;-88
2023/04/24 12:07:29;;;;;;;6.23;4.20;;;;;;;;;;5039966;28;20199;-92
2023/04/24 12:09:59;;;;;;;6.47;3.63;;;;;;;;;;5048902;28;20212;-87
2023/04/24 12:12:28;;;;;;;5.03;4.57;;;;;;;;;;5052399;28;20310;-87
2023/04/24 12:14:56;;;;;;;5.20;4.13;;;;;;;;;;5052840;28;20210;-87
2023/04/24 12:17:28;;;;;;;4.63;4.13;;;;;;;;;;5046900;28;20203;-88
2023/04/24 12:19:58;;;;;;;6.07;4.27;;;;;;;;;;5052798;28;20204;-88
2023/04/24 12:22:26;;;;;;;6.97;5.97;;;;;;;;;;5048818;28;20210;-87
2023/04/24 12:25:03;;;;;;;6.27;5.50;;;;;;;;;;5054327;28;20265;-88
2023/04/24 12:27:33;;;;;;;5.20;4.70;;;;;;;;;;5047580;28;20210;-88
2023/04/24 12:30:02;;;;;;;5.43;4.93;;;;;;;;;;5051459;28;20199;-88
2023/04/24 12:32:29;;;;;;;6.60;5.93;;;;;;;;;;5056024;28;20208;-88
2023/04/24 12:34:56;;;;;;;7.00;5.40;;;;;;;;;;5049621;28;20272;-88
2023/04/24 12:37:25;;;;;;;4.90;4.40;;;;;;;;;;5043916;28;20206;-88
2023/04/24 12:40:02;;;;;;;5.33;4.83;;;;;;;;;;5049914;28;20204;-88
2023/04/24 12:42:30;;;;;;;4.93;4.47;;;;;;;;;;5049018;28;20290;-88
2023/04/24 12:45:04;;;;;;;8.13;4.60;;;;;;;;;;5043703;28;20245;-87
2023/04/24 12:47:32;;;;;;;4.70;4.20;;;;;;;;;;5057356;28;20249;-88
2023/04/24 12:49:59;;;;;;;4.63;4.10;;;;;;;;;;5051152;28;20208;-88
2023/04/24 12:52:27;;;;;;;6.13;4.40;;;;;;;;;;5048290;28;20306;-88
2023/04/24 12:54:54;;;;;;;4.50;3.90;;;;;;;;;;5051306;28;20199;-87
2023/04/24 12:57:22;;;;;;;4.90;4.40;;;;;;;;;;5048538;28;20208;-86
2023/04/24 12:59:50;;;;;;;5.23;4.50;;;;;;;;;;5048034;28;20199;-87
2023/04/24 13:02:19;;;;;;;4.77;4.27;;;;;;;;;;5049823;28;20222;-87
2023/04/24 13:04:47;;;;;;;4.97;4.27;;;;;;;;;;5055760;28;20249;-87
2023/04/24 13:07:14;;;;;;;5.87;4.70;;;;;;;;;;5058673;28;20282;-87
2023/04/24 13:09:42;;;;;;;6.53;4.40;;;;;;;;;;5051661;28;20211;-87
2023/04/24 13:12:09;;;;;;;5.37;4.50;;;;;;;;;;5046816;28;20223;-87
2023/04/24 13:14:37;;;;;;;5.20;4.20;;;;;;;;;;5044749;28;20199;-88
2023/04/24 13:17:05;;;;;;;7.40;4.60;;;;;;;;;;5046002;28;20208;-87
2023/04/24 13:19:36;;;;;;;4.83;4.40;;;;;;;;;;5041884;28;20211;-89
2023/04/24 13:22:05;;;;;;;5.43;4.40;;;;;;;;;;5043561;28;20211;-87
2023/04/24 13:24:32;;;;;;;4.37;3.80;;;;;;;;;;5043852;28;20268;-92
2023/04/24 13:27:00;;;;;;;6.40;4.90;;;;;;;;;;5048256;28;20203;-87
2023/04/24 13:29:28;;;;;;;4.73;4.33;;;;;;;;;;5048317;28;20208;-88
2023/04/24 13:31:56;;;;;;;5.10;4.70;;;;;;;;;;5058148;28;20234;-88
2023/04/24 13:34:23;;;;;;;5.37;4.63;;;;;;;;;;5047116;28;20306;-88
2023/04/24 13:36:53;;;;;;;5.30;4.30;;;;;;;;;;5056184;28;20210;-88
2023/04/24 13:39:20;;;;;;;6.93;4.30;;;;;;;;;;5051351;28;20283;-89
2023/04/24 13:41:48;;;;;;;5.67;4.47;;;;;;;;;;5044907;28;20278;-88
2023/04/24 13:44:16;;;;;;;5.23;4.47;;;;;;;;;;5048250;28;20264;-88
2023/04/24 13:46:44;;;;;;;5.93;4.03;;;;;;;;;;5055658;28;20199;-88
2023/04/24 13:49:12;;;;;;;5.53;4.30;;;;;;;;;;5045243;28;20227;-88
2023/04/24 13:51:40;;;;;;;6.88;4.80;;;;;;;;;;5046239;28;20299;-89
2023/04/24 13:54:09;;;;;;;4.35;3.97;;;;;;;;;;5050088;28;20208;-89
2023/04/24 13:56:36;;;;;;;5.38;4.10;;;;;;;;;;5042847;28;20196;-88
2023/04/24 13:59:04;;;;;;;5.20;4.40;;;;;;;;;;5045534;28;20221;-89
2023/04/24 14:01:31;;;;;;;4.93;4.15;;;;;;;;;;5046225;28;20200;-94
2023/04/24 14:03:59;;;;;;;6.20;3.92;;;;;;;;;;5039273;28;20207;-93
2023/04/24 14:06:27;;;;;;;5.10;4.60;;;;;;;;;;5053755;28;20211;-92
2023/04/24 14:08:54;;;;;;;6.38;4.07;;;;;;;;;;5045920;28;20312;-96
2023/04/24 14:11:22;;;;;;;4.40;4.00;;;;;;;;;;5050696;28;20314;-94
2023/04/24 14:13:52;;;;;;;4.55;3.90;;;;;;;;;;5043159;28;20239;-95
2023/04/24 14:16:19;;;;;;;4.38;3.90;;;;;;;;;;5052229;28;20259;-94
2023/04/24 14:18:47;;;;;;;4.57;4.18;;;;;;;;;;5049715;28;20308;-95
2023/04/24 14:21:14;;;;;;;6.10;4.30;;;;;;;;;;5048384;28;20222;-94
2023/04/24 14:23:41;;;;;;;6.22;4.05;;;;;;;;;;5046632;28;20303;-96
2023/04/24 14:26:08;;;;;;;6.70;4.22;;;;;;;;;;5047169;28;20236;-93
2023/04/24 14:28:38;;;;;;;6.47;5.13;;;;;;;;;;5049263;28;20274;-94
2023/04/24 14:31:05;;;;;;;5.50;5.00;;;;;;;;;;5050372;28;20235;-94
2023/04/24 14:33:33;;;;;;;5.53;4.93;;;;;;;;;;5052715;28;20279;-95
2023/04/24 14:36:02;;;;;;;5.88;4.72;;;;;;;;;;5055474;28;20297;-95
2023/04/24 14:38:30;;;;;;;4.10;3.70;;;;;;;;;;5049385;28;20251;-90
2023/04/24 14:40:57;;;;;;;5.20;4.70;;;;;;;;;;5057266;28;20238;-89
2023/04/24 14:43:24;;;;;;;4.25;3.95;;;;;;;;;;5044537;28;20199;-90
2023/04/24 14:45:53;;;;;;;5.67;4.70;;;;;;;;;;5044083;28;20192;-90
2023/04/24 14:48:21;;;;;;;4.27;3.87;;;;;;;;;;5047010;28;20221;-89
2023/04/24 14:50:48;;;;;;;4.47;3.83;;;;;;;;;;5045491;28;20199;-90